createdAt,value
2022-12-11T00:01:20.792Z,77
2022-12-11T00:03:51.903Z,77
2022-12-11T00:06:23.829Z,76
2022-12-11T00:08:54.748Z,76
2022-12-11T00:11:25.051Z,77
2022-12-11T00:13:55.753Z,78
2022-12-11T00:16:27.324Z,77
2022-12-11T00:18:58.063Z,77
2022-12-11T00:21:29.362Z,77
2022-12-11T00:24:00.066Z,77
2022-12-11T00:26:30.924Z,77
2022-12-11T00:29:01.599Z,78
2022-12-11T00:31:30.714Z,79
2022-12-11T00:34:01.689Z,78
2022-12-11T00:36:32.630Z,78
2022-12-11T00:39:03.145Z,77
2022-12-11T00:41:33.924Z,78
2022-12-11T00:44:04.604Z,78
2022-12-11T00:46:34.334Z,77
2022-12-11T00:49:04.834Z,78
2022-12-11T00:51:37.335Z,78
2022-12-11T00:54:07.910Z,77
2022-12-11T00:56:39.361Z,77
2022-12-11T00:59:10.576Z,77
2022-12-11T01:01:41.635Z,78
2022-12-11T01:04:12.298Z,78
2022-12-11T01:06:43.976Z,78
2022-12-11T01:09:15.199Z,79
2022-12-11T01:11:45.744Z,78
2022-12-11T01:14:16.581Z,78
2022-12-11T01:16:47.586Z,77
2022-12-11T01:19:18.297Z,79
2022-12-11T01:21:50.358Z,79
2022-12-11T01:24:20.995Z,79
2022-12-11T01:26:52.089Z,78
2022-12-11T01:29:23.585Z,78
2022-12-11T01:31:54.149Z,77
2022-12-11T01:34:24.842Z,78
2022-12-11T01:36:56.207Z,78
2022-12-11T01:39:27.380Z,78
2022-12-11T01:41:58.984Z,79
2022-12-11T01:44:29.827Z,78
2022-12-11T01:47:00.511Z,78
2022-12-11T01:49:32.216Z,78
2022-12-11T01:52:03.140Z,77
2022-12-11T01:54:34.462Z,78
2022-12-11T01:57:05.694Z,77
2022-12-11T01:59:37.407Z,77
2022-12-11T02:02:08.267Z,78
2022-12-11T02:04:39.996Z,78
2022-12-11T02:07:12.254Z,78
2022-12-11T02:09:42.170Z,77
2022-12-11T02:12:13.101Z,78
2022-12-11T02:14:44.393Z,78
2022-12-11T02:17:15.109Z,78
2022-12-11T02:19:46.191Z,78
2022-12-11T02:22:17.269Z,78
2022-12-11T02:24:48.195Z,78
2022-12-11T02:27:19.052Z,78
2022-12-11T02:29:51.185Z,78
2022-12-11T02:32:22.001Z,79
2022-12-11T02:34:53.176Z,79
2022-12-11T02:37:24.279Z,79
2022-12-11T02:39:55.442Z,78
2022-12-11T02:42:26.006Z,78
2022-12-11T02:44:57.246Z,78
2022-12-11T02:47:28.314Z,78
2022-12-11T02:49:59.542Z,78
2022-12-11T02:52:29.925Z,78
2022-12-11T02:55:03.554Z,78
2022-12-11T02:57:35.561Z,78
2022-12-11T03:00:06.305Z,78
2022-12-11T03:02:37.234Z,77
2022-12-11T03:05:08.544Z,77
2022-12-11T03:07:39.590Z,77
2022-12-11T03:10:09.990Z,78
2022-12-11T03:12:41.301Z,77
2022-12-11T03:15:12.520Z,77
2022-12-11T03:17:43.188Z,78
2022-12-11T03:20:14.185Z,78
2022-12-11T03:22:46.061Z,78
2022-12-11T03:25:16.831Z,79
2022-12-11T03:27:48.276Z,78
2022-12-11T03:30:19.549Z,78
2022-12-11T03:32:50.431Z,78
2022-12-11T03:35:21.984Z,77
2022-12-11T03:37:52.841Z,77
2022-12-11T03:40:24.770Z,77
2022-12-11T03:42:55.414Z,77
2022-12-11T03:45:26.936Z,78
2022-12-11T03:47:58.165Z,77
2022-12-11T03:50:29.283Z,78
2022-12-11T03:53:00.039Z,78
2022-12-11T03:55:30.929Z,77
2022-12-11T03:58:01.589Z,78
2022-12-11T04:00:33.209Z,77
2022-12-11T04:03:06.928Z,78
2022-12-11T04:05:34.762Z,78
2022-12-11T04:08:05.671Z,78
2022-12-11T04:10:36.861Z,78
2022-12-11T04:13:07.948Z,77
2022-12-11T04:15:38.813Z,78
2022-12-11T04:18:09.876Z,77
2022-12-11T04:20:41.017Z,77
2022-12-11T04:23:12.985Z,77
2022-12-11T04:25:44.519Z,77
2022-12-11T04:28:16.193Z,77
2022-12-11T04:30:47.756Z,77
2022-12-11T04:33:19.248Z,78
2022-12-11T04:35:50.231Z,77
2022-12-11T04:38:21.781Z,77
2022-12-11T04:40:52.779Z,77
2022-12-11T04:43:23.880Z,77
2022-12-11T04:45:54.596Z,76
2022-12-11T04:48:26.309Z,77
2022-12-11T04:50:57.471Z,77
2022-12-11T04:53:28.145Z,76
2022-12-11T04:55:59.192Z,77
2022-12-11T04:58:30.461Z,76
2022-12-11T05:01:01.374Z,76
2022-12-11T05:03:32.726Z,76
2022-12-11T05:06:03.177Z,77
2022-12-11T05:08:34.267Z,77
2022-12-11T05:11:05.390Z,76
2022-12-11T05:13:36.820Z,76
2022-12-11T05:16:07.706Z,76
2022-12-11T05:18:38.563Z,76
2022-12-11T05:21:09.501Z,77
2022-12-11T05:23:40.750Z,76
2022-12-11T05:26:12.411Z,76
2022-12-11T05:28:43.255Z,77
2022-12-11T05:31:14.421Z,77
2022-12-11T05:33:45.567Z,76
2022-12-11T05:36:16.373Z,76
2022-12-11T05:38:47.216Z,76
2022-12-11T05:41:18.568Z,76
2022-12-11T05:43:50.008Z,76
2022-12-11T05:46:20.780Z,75
2022-12-11T05:48:51.840Z,76
2022-12-11T05:51:22.518Z,76
2022-12-11T05:53:53.738Z,75
2022-12-11T05:56:24.620Z,75
2022-12-11T05:58:56.175Z,75
2022-12-11T06:01:27.571Z,76
2022-12-11T06:03:58.813Z,75
2022-12-11T06:06:29.672Z,76
2022-12-11T06:09:00.479Z,75
2022-12-11T06:11:31.342Z,75
2022-12-11T06:14:02.369Z,76
2022-12-11T06:16:33.005Z,76
2022-12-11T06:19:03.614Z,76
2022-12-11T06:21:35.022Z,76
2022-12-11T06:24:06.950Z,76
2022-12-11T06:26:37.532Z,77
2022-12-11T06:29:12.424Z,76
2022-12-11T06:31:39.870Z,76
2022-12-11T06:34:10.174Z,75
2022-12-11T06:36:40.829Z,76
2022-12-11T06:39:12.125Z,77
2022-12-11T06:41:43.137Z,77
2022-12-11T06:44:14.306Z,76
2022-12-11T06:46:45.640Z,77
2022-12-11T06:49:16.167Z,76
2022-12-11T06:51:47.214Z,77
2022-12-11T06:54:17.432Z,76
2022-12-11T06:56:47.660Z,76
2022-12-11T06:59:18.093Z,76
2022-12-11T07:01:48.372Z,75
2022-12-11T07:04:19.753Z,76
2022-12-11T07:06:48.935Z,77
2022-12-11T07:09:20.100Z,76
2022-12-11T07:11:50.698Z,77
2022-12-11T07:14:21.400Z,76
2022-12-11T07:16:52.456Z,75
2022-12-11T07:19:22.990Z,76
2022-12-11T07:21:54.032Z,75
2022-12-11T07:24:23.543Z,76
2022-12-11T07:26:54.051Z,76
2022-12-11T07:29:25.103Z,76
2022-12-11T07:31:56.270Z,76
2022-12-11T07:34:26.964Z,75
2022-12-11T07:36:57.672Z,75
2022-12-11T07:39:28.315Z,75
2022-12-11T07:41:59.325Z,75
2022-12-11T07:44:30.158Z,75
2022-12-11T07:47:00.512Z,76
2022-12-11T07:49:34.616Z,75
2022-12-11T07:52:04.860Z,75
2022-12-11T07:54:35.673Z,75
2022-12-11T07:57:10.751Z,75
2022-12-11T07:59:37.769Z,76
2022-12-11T08:02:08.715Z,75
2022-12-11T08:04:40.213Z,75
2022-12-11T08:07:11.066Z,75
2022-12-11T08:09:41.737Z,74
2022-12-11T08:12:12.388Z,74
2022-12-11T08:14:43.045Z,75
2022-12-11T08:17:14.433Z,75
2022-12-11T08:19:45.718Z,75
2022-12-11T08:22:16.665Z,75
2022-12-11T08:24:47.628Z,75
2022-12-11T08:27:18.462Z,75
2022-12-11T08:29:49.518Z,76
2022-12-11T08:32:20.704Z,75
2022-12-11T08:34:51.517Z,75
2022-12-11T08:37:22.425Z,75
2022-12-11T08:39:53.724Z,75
2022-12-11T08:42:25.302Z,75
2022-12-11T08:44:56.215Z,75
2022-12-11T08:47:27.649Z,76
2022-12-11T08:49:59.353Z,76
2022-12-11T08:52:30.563Z,75
2022-12-11T08:55:02.022Z,75
2022-12-11T08:57:33.203Z,75
2022-12-11T09:00:04.765Z,75
2022-12-11T09:02:36.516Z,75
2022-12-11T09:05:08.004Z,75
2022-12-11T09:07:38.888Z,75
2022-12-11T09:10:10.230Z,74
2022-12-11T09:12:41.661Z,75
2022-12-11T09:15:13.092Z,75
2022-12-11T09:17:42.605Z,74
2022-12-11T09:20:14.825Z,75
2022-12-11T09:22:46.212Z,75
2022-12-11T09:25:17.778Z,75
2022-12-11T09:27:49.424Z,74
2022-12-11T09:30:21.030Z,73
2022-12-11T09:32:51.813Z,73
2022-12-11T09:35:22.805Z,74
2022-12-11T09:37:54.133Z,74
2022-12-11T09:40:25.752Z,74
2022-12-11T09:42:56.688Z,73
2022-12-11T09:45:28.385Z,74
2022-12-11T09:48:04.318Z,74
2022-12-11T09:50:35.280Z,73
2022-12-11T09:53:05.010Z,74
2022-12-11T09:55:36.119Z,73
2022-12-11T09:58:07.713Z,73
2022-12-11T10:00:37.504Z,74
2022-12-11T10:03:08.219Z,73
2022-12-11T10:05:39.766Z,73
2022-12-11T10:08:11.184Z,72
2022-12-11T10:10:42.595Z,73
2022-12-11T10:13:15.466Z,74
2022-12-11T10:15:46.461Z,72
2022-12-11T10:18:17.488Z,72
2022-12-11T10:20:49.023Z,73
2022-12-11T10:23:20.152Z,72
2022-12-11T10:25:50.946Z,72
2022-12-11T10:28:21.853Z,72
2022-12-11T10:30:53.437Z,72
2022-12-11T10:33:24.528Z,72
2022-12-11T10:35:55.573Z,73
2022-12-11T10:38:27.040Z,72
2022-12-11T10:40:58.271Z,73
2022-12-11T10:43:29.885Z,73
2022-12-11T10:46:01.111Z,73
2022-12-11T10:48:32.228Z,73
2022-12-11T10:51:03.436Z,73
2022-12-11T10:53:34.588Z,72
2022-12-11T10:56:05.536Z,73
2022-12-11T10:58:36.567Z,72
2022-12-11T11:01:07.894Z,73
2022-12-11T11:03:39.519Z,72
2022-12-11T11:06:10.839Z,72
2022-12-11T11:08:42.857Z,72
2022-12-11T11:11:15.190Z,72
2022-12-11T11:13:47.365Z,72
2022-12-11T11:16:18.565Z,72
2022-12-11T11:18:49.676Z,72
2022-12-11T11:21:20.930Z,72
2022-12-11T11:23:53.550Z,72
2022-12-11T11:26:23.252Z,72
2022-12-11T11:28:54.527Z,72
2022-12-11T11:31:27.268Z,73
2022-12-11T11:33:58.017Z,73
2022-12-11T11:36:30.342Z,72
2022-12-11T11:39:01.620Z,72
2022-12-11T11:41:33.310Z,72
2022-12-11T11:44:05.388Z,71
2022-12-11T11:46:35.586Z,71
2022-12-11T11:49:06.208Z,70
2022-12-11T11:51:37.465Z,71
2022-12-11T11:54:08.394Z,71
2022-12-11T11:56:39.296Z,71
2022-12-11T11:59:10.493Z,71
2022-12-11T12:01:46.535Z,71
2022-12-11T12:04:17.741Z,71
2022-12-11T12:06:50.991Z,70
2022-12-11T12:09:20.984Z,70
2022-12-11T12:11:52.038Z,70
2022-12-11T12:14:50.952Z,71
2022-12-11T12:16:56.227Z,71
2022-12-11T12:19:27.015Z,71
2022-12-11T12:21:58.240Z,71
2022-12-11T12:24:32.412Z,71
2022-12-11T12:27:09.979Z,70
2022-12-11T12:29:34.751Z,70
2022-12-11T12:32:04.510Z,70
2022-12-11T12:34:35.809Z,71
2022-12-11T12:37:07.371Z,71
2022-12-11T12:39:38.688Z,70
2022-12-11T12:42:09.981Z,70
2022-12-11T12:44:40.890Z,70
2022-12-11T12:47:11.802Z,70
2022-12-11T12:49:42.761Z,70
2022-12-11T12:52:14.085Z,70
2022-12-11T12:54:45.618Z,69
2022-12-11T12:57:16.655Z,69
2022-12-11T12:59:47.724Z,70
2022-12-11T13:02:18.320Z,70
2022-12-11T13:04:57.605Z,69
2022-12-11T13:07:21.546Z,70
2022-12-11T13:09:52.532Z,70
2022-12-11T13:12:26.463Z,69
2022-12-11T13:14:57.310Z,69
2022-12-11T13:17:29.432Z,69
2022-12-11T13:20:00.760Z,69
2022-12-11T13:22:32.882Z,69
2022-12-11T13:25:04.079Z,69
2022-12-11T13:27:35.665Z,69
2022-12-11T13:30:07.156Z,69
2022-12-11T13:32:37.880Z,70
2022-12-11T13:35:09.171Z,69
2022-12-11T13:37:40.592Z,69
2022-12-11T13:40:11.886Z,69
2022-12-11T13:42:42.786Z,68
2022-12-11T13:45:14.414Z,69
2022-12-11T13:47:45.931Z,69
2022-12-11T13:50:17.253Z,69
2022-12-11T13:52:48.391Z,69
2022-12-11T13:55:19.551Z,69
2022-12-11T13:57:50.618Z,69
2022-12-11T14:00:21.499Z,69
2022-12-11T14:02:52.526Z,69
2022-12-11T14:05:24.808Z,70
2022-12-11T14:07:57.493Z,70
2022-12-11T14:10:29.410Z,69
2022-12-11T14:13:00.491Z,69
2022-12-11T14:15:31.408Z,68
2022-12-11T14:18:02.978Z,69
2022-12-11T14:20:34.602Z,69
2022-12-11T14:23:06.042Z,69
2022-12-11T14:25:37.400Z,70
2022-12-11T14:28:07.464Z,69
2022-12-11T14:30:38.859Z,70
2022-12-11T14:33:10.772Z,70
2022-12-11T14:35:42.688Z,69
2022-12-11T14:38:14.352Z,69
2022-12-11T14:40:45.821Z,69
2022-12-11T14:43:17.186Z,69
2022-12-11T14:45:48.360Z,69
2022-12-11T14:48:19.330Z,68
2022-12-11T14:50:50.642Z,69
2022-12-11T14:53:21.722Z,69
2022-12-11T14:55:52.887Z,69
2022-12-11T14:58:24.541Z,68
2022-12-11T15:00:56.155Z,69
2022-12-11T15:03:27.309Z,68
2022-12-11T15:05:58.223Z,68
2022-12-11T15:08:32.302Z,69
2022-12-11T15:11:04.155Z,68
2022-12-11T15:13:34.849Z,68
2022-12-11T15:16:05.836Z,69
2022-12-11T15:18:37.486Z,69
2022-12-11T15:21:09.056Z,69
2022-12-11T15:23:40.588Z,69
2022-12-11T15:26:13.338Z,68
2022-12-11T15:28:44.746Z,69
2022-12-11T15:31:16.059Z,69
2022-12-11T15:33:46.746Z,69
2022-12-11T15:36:17.700Z,69
2022-12-11T15:38:48.580Z,68
2022-12-11T15:41:19.984Z,69
2022-12-11T15:43:53.962Z,69
2022-12-11T15:46:21.558Z,68
2022-12-11T15:48:52.189Z,68
2022-12-11T15:51:23.603Z,68
2022-12-11T15:53:53.218Z,68
2022-12-11T15:56:23.832Z,69
2022-12-11T15:58:54.958Z,69
2022-12-11T16:01:26.459Z,68
2022-12-11T16:04:01.756Z,69
2022-12-11T16:06:30.412Z,68
2022-12-11T16:09:01.682Z,68
2022-12-11T16:11:33.517Z,69
2022-12-11T16:14:04.559Z,69
2022-12-11T16:16:35.806Z,69
2022-12-11T16:19:06.966Z,68
2022-12-11T16:21:38.168Z,69
2022-12-11T16:24:10.327Z,68
2022-12-11T16:26:42.761Z,68
2022-12-11T16:29:14.431Z,68
2022-12-11T16:31:45.968Z,68
2022-12-11T16:34:17.996Z,68
2022-12-11T16:36:48.676Z,68
2022-12-11T16:39:21.233Z,68
2022-12-11T16:41:52.140Z,68
2022-12-11T16:44:29.467Z,68
2022-12-11T16:46:55.853Z,68
2022-12-11T16:49:26.925Z,68
2022-12-11T16:51:59.169Z,68
2022-12-11T16:54:30.246Z,68
2022-12-11T16:57:01.090Z,68
2022-12-11T16:59:36.776Z,68
2022-12-11T17:02:03.562Z,68
2022-12-11T17:04:34.948Z,68
2022-12-11T17:07:05.975Z,68
2022-12-11T17:09:37.214Z,68
2022-12-11T17:12:08.131Z,68
2022-12-11T17:14:39.036Z,68
2022-12-11T17:17:17.282Z,68
2022-12-11T17:19:49.773Z,68
2022-12-11T17:22:16.490Z,68
2022-12-11T17:24:48.052Z,68
2022-12-11T17:27:19.180Z,67
2022-12-11T17:29:52.450Z,68
2022-12-11T17:32:23.120Z,68
2022-12-11T17:34:55.527Z,68
2022-12-11T17:37:26.879Z,68
2022-12-11T17:39:57.936Z,68
2022-12-11T17:42:29.720Z,68
2022-12-11T17:45:05.742Z,68
2022-12-11T17:47:37.170Z,68
2022-12-11T17:50:08.219Z,68
2022-12-11T17:52:44.703Z,68
2022-12-11T17:55:11.024Z,68
2022-12-11T17:57:41.797Z,68
2022-12-11T18:00:13.225Z,68
2022-12-11T18:02:44.863Z,68
2022-12-11T18:05:16.433Z,68
2022-12-11T18:07:47.145Z,68
2022-12-11T18:10:18.002Z,68
2022-12-11T18:12:56.010Z,68
2022-12-11T18:15:21.922Z,68
2022-12-11T18:17:53.367Z,68
2022-12-11T18:20:22.649Z,68
2022-12-11T18:22:53.518Z,68
2022-12-11T18:25:25.838Z,68
2022-12-11T18:28:00.135Z,68
2022-12-11T18:30:37.201Z,68
2022-12-11T18:33:02.394Z,68
2022-12-11T18:35:33.551Z,68
2022-12-11T18:38:05.688Z,68
2022-12-11T18:40:37.133Z,69
2022-12-11T18:43:08.650Z,69
2022-12-11T18:45:44.597Z,68
2022-12-11T18:48:17.924Z,68
2022-12-11T18:50:54.863Z,68
2022-12-11T18:53:26.455Z,67
2022-12-11T18:56:00.469Z,68
2022-12-11T18:58:30.346Z,68
2022-12-11T19:01:02.714Z,68
2022-12-11T19:03:33.806Z,68
2022-12-11T19:06:06.240Z,67
2022-12-11T19:08:38.117Z,68
2022-12-11T19:11:09.175Z,68
2022-12-11T19:13:40.351Z,68
2022-12-11T19:16:11.262Z,68
2022-12-11T19:18:43.049Z,68
2022-12-11T19:21:14.327Z,68
2022-12-11T19:23:48.664Z,68
2022-12-11T19:26:20.146Z,68
2022-12-11T19:28:51.606Z,68
2022-12-11T19:31:22.772Z,68
2022-12-11T19:33:53.587Z,68
2022-12-11T19:36:24.191Z,69
2022-12-11T19:38:59.398Z,69
2022-12-11T19:41:26.131Z,68
2022-12-11T19:43:56.994Z,69
2022-12-11T19:46:28.234Z,69
2022-12-11T19:48:59.407Z,69
2022-12-11T19:51:31.552Z,68
2022-12-11T19:54:03.020Z,69
2022-12-11T19:56:38.576Z,69
2022-12-11T19:59:09.744Z,69
2022-12-11T20:01:41.475Z,69
2022-12-11T20:04:13.373Z,69
2022-12-11T20:06:45.533Z,69
2022-12-11T20:09:16.819Z,69
2022-12-11T20:11:49.486Z,69
2022-12-11T20:14:23.571Z,68
2022-12-11T20:17:11.263Z,68
2022-12-11T20:19:26.128Z,69
2022-12-11T20:21:57.127Z,68
2022-12-11T20:24:30.127Z,68
2022-12-11T20:27:01.475Z,68
2022-12-11T20:29:33.732Z,68
2022-12-11T20:32:05.097Z,68
2022-12-11T20:34:36.061Z,69
2022-12-11T20:37:07.373Z,69
2022-12-11T20:39:39.618Z,69
2022-12-11T20:42:10.747Z,69
2022-12-11T20:44:47.238Z,69
2022-12-11T20:47:13.265Z,69
2022-12-11T20:49:46.547Z,69
2022-12-11T20:52:17.915Z,69
2022-12-11T20:54:49.337Z,69
2022-12-11T20:57:20.899Z,69
2022-12-11T20:59:52.718Z,69
2022-12-11T21:02:23.926Z,69
2022-12-11T21:04:55.211Z,69
2022-12-11T21:07:26.470Z,69
2022-12-11T21:09:57.330Z,69
2022-12-11T21:12:31.623Z,69
2022-12-11T21:15:00.580Z,69
2022-12-11T21:17:34.773Z,69
2022-12-11T21:20:06.380Z,69
2022-12-11T21:22:36.172Z,69
2022-12-11T21:25:08.516Z,69
2022-12-11T21:27:39.950Z,69
2022-12-11T21:30:11.133Z,69
2022-12-11T21:32:41.520Z,70
2022-12-11T21:35:13.505Z,70
2022-12-11T21:37:45.660Z,70
2022-12-11T21:40:16.898Z,70
2022-12-11T21:42:48.919Z,70
2022-12-11T21:46:20.366Z,70
2022-12-11T21:47:54.713Z,70
2022-12-11T21:50:26.015Z,70
2022-12-11T21:52:56.221Z,69
2022-12-11T21:55:32.835Z,69
2022-12-11T21:58:04.824Z,69
2022-12-11T22:00:34.204Z,69
2022-12-11T22:03:05.443Z,69
2022-12-11T22:05:36.752Z,68
2022-12-11T22:08:07.692Z,68
2022-12-11T22:10:39.338Z,67
2022-12-11T22:13:10.487Z,66
2022-12-11T22:15:42.628Z,66
2022-12-11T22:18:14.055Z,66
2022-12-11T22:20:45.058Z,67
2022-12-11T22:23:16.607Z,67
2022-12-11T22:25:48.697Z,67
2022-12-11T22:28:20.844Z,67
2022-12-11T22:30:52.250Z,67
2022-12-11T22:33:23.652Z,67
2022-12-11T22:35:55.080Z,66
2022-12-11T22:38:27.108Z,66
2022-12-11T22:41:00.082Z,66
2022-12-11T22:43:31.185Z,66
2022-12-11T22:46:03.564Z,66
2022-12-11T22:48:34.655Z,66
2022-12-11T22:51:05.556Z,66
2022-12-11T22:53:37.074Z,66
2022-12-11T22:56:08.019Z,66
2022-12-11T22:58:39.808Z,66
2022-12-11T23:01:11.850Z,66
2022-12-11T23:03:43.148Z,66
2022-12-11T23:06:15.239Z,66
2022-12-11T23:08:46.276Z,66
2022-12-11T23:11:17.371Z,66
2022-12-11T23:13:48.534Z,66
2022-12-11T23:16:19.549Z,67
2022-12-11T23:18:51.377Z,67
2022-12-11T23:21:22.405Z,67
2022-12-11T23:23:53.326Z,67
2022-12-11T23:26:24.735Z,67
2022-12-11T23:28:55.392Z,67
2022-12-11T23:31:26.133Z,67
2022-12-11T23:34:02.865Z,67
2022-12-11T23:36:27.958Z,67
2022-12-11T23:38:59.303Z,67
2022-12-11T23:41:30.485Z,67
2022-12-11T23:44:01.188Z,68
2022-12-11T23:46:32.900Z,67
2022-12-11T23:49:04.228Z,67
2022-12-11T23:51:36.093Z,67
2022-12-11T23:54:06.589Z,66
2022-12-11T23:56:40.266Z,67
2022-12-11T23:59:11.042Z,68
